Time;durP1;ratioP1;P1;durP2;ratioP2;P2;SDS_P1;SDS_P2;PMS_P1;PMS_P2;Temp;Humidity;BMP_temperature;BMP_pressure;BME280_temperature;BME280_humidity;BME280_pressure;Samples;Min_cycle;Max_cycle;Signal;HPM_P1;HPM_P2
2024/02/14 00:00:24;;;;;;;7.28;4.20;;;;;;;6.70;100.00;69135.19;5072672;28;20510;-62
2024/02/14 00:02:53;;;;;;;7.05;4.38;;;;;;;6.71;100.00;69135.78;5072792;28;20053;-62
2024/02/14 00:05:23;;;;;;;7.78;4.70;;;;;;;6.73;100.00;69135.50;5072727;28;20045;-61
2024/02/14 00:07:51;;;;;;;6.88;4.18;;;;;;;6.72;100.00;69139.53;5073555;28;20479;-60
2024/02/14 00:10:19;;;;;;;6.75;4.28;;;;;;;6.72;100.00;69137.53;5073366;28;20032;-62
2024/02/14 00:12:49;;;;;;;6.03;4.18;;;;;;;6.75;100.00;69141.00;5072738;28;20049;-62
2024/02/14 00:15:17;;;;;;;7.28;4.57;;;;;;;6.76;100.00;69136.41;5072883;28;20043;-62
2024/02/14 00:17:45;;;;;;;8.65;4.20;;;;;;;6.78;100.00;69138.72;5072709;28;20056;-62
2024/02/14 00:20:14;;;;;;;8.70;4.40;;;;;;;6.76;100.00;69139.59;5072450;28;20549;-61
2024/02/14 00:22:42;;;;;;;6.95;4.25;;;;;;;6.79;100.00;69139.31;5072029;28;20036;-62
2024/02/14 00:25:11;;;;;;;7.55;4.35;;;;;;;6.78;100.00;69143.91;5072101;28;20049;-62
2024/02/14 00:27:42;;;;;;;10.80;4.72;;;;;;;6.80;100.00;69146.25;5072024;28;20040;-61
2024/02/14 00:30:12;;;;;;;8.00;4.70;;;;;;;6.81;100.00;69147.41;5070972;28;20148;-61
2024/02/14 00:32:40;;;;;;;10.27;4.30;;;;;;;6.82;100.00;69145.97;5072693;28;20048;-61
2024/02/14 00:35:09;;;;;;;7.38;4.47;;;;;;;6.85;100.00;69149.47;5072111;28;20048;-62
2024/02/14 00:37:38;;;;;;;8.60;5.03;;;;;;;6.84;100.00;69148.28;5072668;28;20090;-62
2024/02/14 00:40:07;;;;;;;10.40;5.03;;;;;;;6.87;100.00;69148.63;5073194;28;20040;-61
2024/02/14 00:42:36;;;;;;;7.18;5.05;;;;;;;6.87;100.00;69151.81;5073008;28;20067;-61
2024/02/14 00:45:05;;;;;;;7.82;5.00;;;;;;;6.87;100.00;69154.41;5073124;28;20044;-61
2024/02/14 00:47:35;;;;;;;8.07;5.43;;;;;;;6.90;100.00;69150.09;5072377;28;20048;-61
2024/02/14 00:50:04;;;;;;;8.25;4.85;;;;;;;6.91;100.00;69156.47;5071531;28;20123;-61
2024/02/14 00:52:32;;;;;;;7.50;5.07;;;;;;;6.90;100.00;69154.72;5071434;28;20101;-61
2024/02/14 00:55:03;;;;;;;7.53;5.30;;;;;;;6.91;100.00;69153.88;5070380;28;20147;-61
2024/02/14 00:57:31;;;;;;;8.55;5.28;;;;;;;6.91;100.00;69156.47;5072160;28;20132;-60
2024/02/14 01:00:00;;;;;;;7.28;5.03;;;;;;;6.94;100.00;69162.53;5072322;28;20124;-61
2024/02/14 01:02:29;;;;;;;7.15;4.95;;;;;;;6.99;100.00;69167.19;5072248;28;20118;-61
2024/02/14 01:04:59;;;;;;;8.75;5.47;;;;;;;6.98;100.00;69163.44;5072129;28;20052;-62
2024/02/14 01:07:28;;;;;;;10.25;5.55;;;;;;;6.98;100.00;69163.44;5071978;28;20102;-60
2024/02/14 01:09:56;;;;;;;9.23;5.70;;;;;;;7.03;100.00;69169.81;5071416;28;20360;-61
2024/02/14 01:12:24;;;;;;;10.52;5.93;;;;;;;7.00;100.00;69166.34;5071683;28;20048;-61
2024/02/14 01:14:52;;;;;;;8.00;5.82;;;;;;;7.01;100.00;69161.72;5072409;28;20052;-61
2024/02/14 01:17:20;;;;;;;9.88;6.25;;;;;;;7.00;100.00;69166.34;5071683;28;20110;-61
2024/02/14 01:19:48;;;;;;;8.88;5.60;;;;;;;7.06;100.00;69172.75;5071586;28;20045;-61
2024/02/14 01:22:18;;;;;;;9.50;6.03;;;;;;;7.06;100.00;69175.94;5071839;28;20452;-61
2024/02/14 01:24:46;;;;;;;10.35;6.00;;;;;;;7.08;100.00;69175.06;5071382;28;20048;-62
2024/02/14 01:27:15;;;;;;;9.80;6.32;;;;;;;7.09;100.00;69176.25;5071400;28;20491;-61
2024/02/14 01:29:44;;;;;;;9.70;6.05;;;;;;;7.11;100.00;69178.56;5069178;28;20041;-51
2024/02/14 01:32:12;;;;;;;10.75;6.07;;;;;;;7.16;100.00;69181.78;5071668;28;20072;-53
2024/02/14 01:34:42;;;;;;;9.80;6.07;;;;;;;7.18;100.00;69186.69;5067054;28;20049;-51
2024/02/14 01:37:10;;;;;;;11.13;6.45;;;;;;;7.18;100.00;69186.69;5068943;28;20063;-52
2024/02/14 01:39:40;;;;;;;10.50;6.05;;;;;;;7.24;100.00;69193.09;5067184;28;20055;-49
2024/02/14 01:42:08;;;;;;;10.27;6.18;;;;;;;7.24;100.00;69196.28;5068427;28;20040;-50
2024/02/14 01:44:36;;;;;;;10.68;6.63;;;;;;;7.25;100.00;69194.88;5068457;28;20055;-50
2024/02/14 01:47:05;;;;;;;15.43;6.78;;;;;;;7.29;100.00;69198.94;5071688;28;20062;-53
2024/02/14 01:49:34;;;;;;;10.93;6.47;;;;;;;7.32;100.00;69202.44;5071956;28;20049;-52
2024/02/14 01:52:04;;;;;;;12.55;7.05;;;;;;;7.33;100.00;69203.00;5071937;28;20045;-52
2024/02/14 01:54:34;;;;;;;9.80;6.80;;;;;;;7.36;100.00;69206.50;5071677;28;20051;-54
2024/02/14 01:57:05;;;;;;;10.50;7.03;;;;;;;7.38;100.00;69208.84;5071892;28;20047;-52
2024/02/14 01:59:35;;;;;;;10.90;6.32;;;;;;;7.39;100.00;69212.56;5071242;28;20051;-52
2024/02/14 02:02:06;;;;;;;10.75;6.60;;;;;;;7.40;100.00;69208.56;5068868;28;20130;-48
2024/02/14 02:04:35;;;;;;;11.13;6.43;;;;;;;7.41;100.00;69212.31;5069888;28;20072;-51
2024/02/14 02:07:05;;;;;;;9.90;6.78;;;;;;;7.44;100.00;69210.63;5073090;28;20041;-51
2024/02/14 02:09:34;;;;;;;11.25;6.68;;;;;;;7.43;100.00;69212.03;5070707;28;20045;-53
2024/02/14 02:12:02;;;;;;;12.43;7.15;;;;;;;7.45;100.00;69217.56;5072359;28;20510;-52
2024/02/14 02:14:31;;;;;;;11.95;6.63;;;;;;;7.51;100.00;69223.97;5075111;28;20049;-52
2024/02/14 02:17:00;;;;;;;12.68;6.93;;;;;;;7.53;100.00;69228.31;5074085;28;20044;-52
2024/02/14 02:19:28;;;;;;;11.23;6.40;;;;;;;7.55;100.00;69228.63;5074994;28;20106;-51
2024/02/14 02:21:57;;;;;;;10.90;6.57;;;;;;;7.61;100.00;69235.59;5074751;28;20127;-52
2024/02/14 02:24:26;;;;;;;8.50;5.72;;;;;;;7.64;100.00;69240.53;5075026;28;20510;-52
2024/02/14 02:26:56;;;;;;;10.63;7.05;;;;;;;7.64;100.00;69237.94;5074909;28;20086;-50
2024/02/14 02:29:25;;;;;;;10.38;6.78;;;;;;;7.64;100.00;69235.91;5074930;28;20060;-51
2024/02/14 02:31:53;;;;;;;11.43;6.70;;;;;;;7.66;100.00;69240.84;5071571;28;20055;-52
2024/02/14 02:34:21;;;;;;;12.85;6.57;;;;;;;7.67;100.00;69239.41;5071415;28;20049;-53
2024/02/14 02:36:50;;;;;;;13.75;7.00;;;;;;;7.68;100.00;69240.00;5074448;28;20063;-50
2024/02/14 02:39:17;;;;;;;11.98;6.78;;;;;;;7.69;100.00;69241.16;5071110;28;20392;-51
2024/02/14 02:41:48;;;;;;;11.15;6.45;;;;;;;7.67;100.00;69244.59;5071699;28;20032;-51
2024/02/14 02:44:16;;;;;;;11.50;7.03;;;;;;;7.69;100.00;69246.34;5074558;28;20056;-49
2024/02/14 02:46:45;;;;;;;13.50;7.30;;;;;;;7.69;100.00;69241.16;5074514;28;20044;-50
2024/02/14 02:49:14;;;;;;;12.82;7.07;;;;;;;7.68;100.00;69245.19;5074410;28;20059;-48
2024/02/14 02:51:43;;;;;;;13.32;7.25;;;;;;;7.74;100.00;69247.56;5074247;28;20043;-49
2024/02/14 02:54:11;;;;;;;12.35;6.90;;;;;;;7.73;100.00;69249.00;5072301;28;20523;-50
2024/02/14 02:56:40;;;;;;;11.00;6.75;;;;;;;7.70;100.00;69245.50;5069525;28;20048;-51
2024/02/14 02:59:10;;;;;;;9.80;7.15;;;;;;;7.71;100.00;69243.50;5072236;28;20068;-62
2024/02/14 03:01:40;;;;;;;10.30;7.13;;;;;;;7.71;100.00;69246.09;5073731;28;20098;-62
2024/02/14 03:04:08;;;;;;;13.55;7.40;;;;;;;7.70;100.00;69245.50;5073456;28;20044;-61
2024/02/14 03:06:36;;;;;;;10.52;7.03;;;;;;;7.72;100.00;69245.22;5073429;28;20507;-62
2024/02/14 03:09:05;;;;;;;13.13;7.13;;;;;;;7.74;100.00;69252.16;5073695;28;20392;-61
2024/02/14 03:11:37;;;;;;;12.68;7.13;;;;;;;7.74;100.00;69246.97;5074418;28;20357;-62
2024/02/14 03:14:05;;;;;;;10.85;6.70;;;;;;;7.77;100.00;69253.06;5074267;28;20385;-62
2024/02/14 03:16:37;;;;;;;12.20;7.50;;;;;;;7.78;100.00;69256.81;5070948;28;20044;-62
2024/02/14 03:19:05;;;;;;;11.63;7.60;;;;;;;7.79;100.00;69255.97;5072953;28;20052;-62
2024/02/14 03:21:35;;;;;;;12.27;7.38;;;;;;;7.81;100.00;69257.72;5073211;28;20119;-62
2024/02/14 03:24:04;;;;;;;13.15;7.03;;;;;;;7.83;100.00;69257.47;5073306;28;20127;-62
2024/02/14 03:26:33;;;;;;;13.43;7.07;;;;;;;7.84;100.00;69265.81;5071873;28;20052;-62
2024/02/14 03:29:06;;;;;;;12.23;7.10;;;;;;;7.84;100.00;69263.22;5072807;28;20455;-62
2024/02/14 03:31:35;;;;;;;11.93;6.75;;;;;;;7.84;100.00;69263.22;5073124;28;20094;-62
2024/02/14 03:34:04;;;;;;;13.32;7.57;;;;;;;7.85;100.00;69262.38;5074003;28;20411;-61
2024/02/14 03:36:33;;;;;;;11.32;6.75;;;;;;;7.87;100.00;69264.72;5073723;28;20509;-63
2024/02/14 03:39:05;;;;;;;12.32;7.78;;;;;;;7.86;100.00;69263.53;5071347;28;20052;-62
2024/02/14 03:41:33;;;;;;;12.57;7.57;;;;;;;7.89;100.00;69263.88;5070046;28;20048;-62
2024/02/14 03:44:03;;;;;;;12.15;7.78;;;;;;;7.92;100.00;69270.53;5071122;28;20041;-62
2024/02/14 03:46:31;;;;;;;10.98;7.60;;;;;;;7.91;100.00;69269.38;5071508;28;20055;-62
2024/02/14 03:49:01;;;;;;;13.20;8.02;;;;;;;7.96;100.00;69272.00;5072342;28;20059;-62
2024/02/14 03:51:30;;;;;;;12.73;7.68;;;;;;;7.95;100.00;69279.22;5073113;28;20059;-63
2024/02/14 03:53:58;;;;;;;16.65;8.25;;;;;;;7.97;100.00;69275.78;5073100;28;20102;-62
2024/02/14 03:56:27;;;;;;;11.20;7.55;;;;;;;7.97;100.00;69278.38;5071425;28;20052;-62
2024/02/14 03:58:55;;;;;;;12.70;7.85;;;;;;;8.00;100.00;69279.25;5072458;28;20053;-63
2024/02/14 04:01:23;;;;;;;17.17;8.70;;;;;;;8.01;100.00;69277.84;5072247;28;20052;-62
2024/02/14 04:03:54;;;;;;;13.27;9.05;;;;;;;8.01;100.00;69277.25;5071208;28;20052;-63
2024/02/14 04:06:24;;;;;;;14.13;8.80;;;;;;;8.04;100.00;69285.94;5071251;28;20055;-62
2024/02/14 04:08:52;;;;;;;16.65;9.75;;;;;;;8.04;100.00;69281.31;5072684;28;20098;-62
2024/02/14 04:11:20;;;;;;;12.88;8.95;;;;;;;8.08;100.00;69285.41;5069742;28;20093;-62
2024/02/14 04:13:49;;;;;;;14.40;9.55;;;;;;;8.09;100.00;69292.34;5071050;28;20592;-63
2024/02/14 04:16:20;;;;;;;16.38;9.82;;;;;;;8.09;100.00;69287.16;5070956;28;20048;-62
2024/02/14 04:18:48;;;;;;;13.75;9.18;;;;;;;8.13;100.00;69291.25;5071047;28;20541;-62
2024/02/14 04:21:17;;;;;;;13.50;8.93;;;;;;;8.13;100.00;69293.84;5070586;28;20045;-62
2024/02/14 04:23:46;;;;;;;14.98;9.32;;;;;;;8.15;100.00;69300.78;5070893;28;20106;-62
2024/02/14 04:26:20;;;;;;;15.13;10.32;;;;;;;8.14;100.00;69289.81;5069374;28;20045;-63
2024/02/14 04:28:48;;;;;;;15.25;9.65;;;;;;;8.16;100.00;69296.75;5070200;28;20040;-63
2024/02/14 04:31:16;;;;;;;15.20;9.90;;;;;;;8.16;100.00;69291.56;5070945;28;20043;-62
2024/02/14 04:33:50;;;;;;;18.08;10.73;;;;;;;8.19;100.00;69298.22;5070367;28;20123;-62
2024/02/14 04:36:19;;;;;;;16.92;10.25;;;;;;;8.21;100.00;69303.16;5070021;28;20044;-63
2024/02/14 04:38:49;;;;;;;19.08;11.70;;;;;;;8.21;100.00;69305.75;5070753;28;20040;-62
2024/02/14 04:41:18;;;;;;;15.85;10.50;;;;;;;8.25;100.00;69313.00;5068470;28;20044;-62
2024/02/14 04:43:46;;;;;;;17.05;10.35;;;;;;;8.27;100.00;69304.34;5070318;28;20037;-62
2024/02/14 04:46:14;;;;;;;15.30;10.55;;;;;;;8.24;100.00;69308.66;5070054;28;20080;-63
2024/02/14 04:48:42;;;;;;;17.27;10.70;;;;;;;8.27;100.00;69312.72;5071546;28;20041;-62
2024/02/14 04:51:11;;;;;;;20.75;10.63;;;;;;;8.29;100.00;69312.47;5069533;28;20036;-62
2024/02/14 04:53:39;;;;;;;17.25;10.95;;;;;;;8.28;100.00;69311.31;5069244;28;20491;-63
2024/02/14 04:56:09;;;;;;;17.92;10.88;;;;;;;8.30;100.00;69307.84;5068522;28;20052;-63
2024/02/14 04:58:38;;;;;;;17.73;12.18;;;;;;;8.28;100.00;69313.91;5071956;28;20048;-50
2024/02/14 05:01:07;;;;;;;16.90;11.07;;;;;;;8.27;100.00;69309.56;5067901;28;20044;-53
2024/02/14 05:03:36;;;;;;;22.13;12.25;;;;;;;8.26;100.00;69308.38;5069057;28;20606;-53
2024/02/14 05:06:05;;;;;;;18.45;11.38;;;;;;;8.34;100.00;69314.53;5070755;28;20041;-52
2024/02/14 05:08:34;;;;;;;17.92;12.35;;;;;;;8.33;100.00;69315.97;5072560;28;20045;-52
2024/02/14 05:11:03;;;;;;;20.75;11.85;;;;;;;8.32;100.00;69309.59;5067505;28;20045;-49
2024/02/14 05:13:33;;;;;;;22.27;11.60;;;;;;;8.32;100.00;69314.78;5069139;28;20139;-53
2024/02/14 05:16:03;;;;;;;21.45;11.73;;;;;;;8.33;100.00;69315.97;5067930;28;20048;-52
2024/02/14 05:18:31;;;;;;;17.02;10.95;;;;;;;8.34;100.00;69317.72;5068955;28;20067;-51
2024/02/14 05:21:06;;;;;;;16.25;11.05;;;;;;;8.37;100.00;69318.63;5069499;28;20118;-63
2024/02/14 05:23:35;;;;;;;15.50;10.73;;;;;;;8.37;100.00;69321.22;5069077;28;20511;-63
2024/02/14 05:26:04;;;;;;;18.05;11.57;;;;;;;8.36;100.00;69317.44;5067319;28;20051;-63
2024/02/14 05:28:33;;;;;;;17.88;11.27;;;;;;;8.37;100.00;69320.63;5069511;28;20075;-62
2024/02/14 05:31:03;;;;;;;20.90;11.52;;;;;;;8.36;100.00;69324.69;5071132;28;20110;-63
2024/02/14 05:33:31;;;;;;;17.23;11.48;;;;;;;8.39;100.00;69325.56;5069823;28;20048;-63
2024/02/14 05:36:02;;;;;;;17.40;10.95;;;;;;;8.40;100.00;69324.13;5069536;28;20045;-63
2024/02/14 05:38:31;;;;;;;20.52;11.43;;;;;;;8.39;100.00;69322.97;5072302;28;20166;-62
2024/02/14 05:41:00;;;;;;;17.13;11.60;;;;;;;8.40;100.00;69324.72;5075943;28;20079;-62
2024/02/14 05:43:28;;;;;;;17.27;11.35;;;;;;;8.41;100.00;69320.09;5075559;28;20036;-63
2024/02/14 05:45:58;;;;;;;15.52;10.90;;;;;;;8.45;100.00;69327.38;5075393;28;20048;-63
2024/02/14 05:48:26;;;;;;;17.00;11.57;;;;;;;8.42;100.00;69329.06;5075616;28;20106;-62
2024/02/14 05:50:54;;;;;;;16.95;10.85;;;;;;;8.43;100.00;69328.19;5075417;28;20059;-62
2024/02/14 05:53:22;;;;;;;17.63;11.63;;;;;;;8.43;100.00;69323.00;5072687;28;20507;-63
2024/02/14 05:55:51;;;;;;;16.48;10.80;;;;;;;8.46;100.00;69331.72;5071534;28;20083;-63
2024/02/14 05:58:19;;;;;;;17.60;10.70;;;;;;;8.44;100.00;69331.41;5072986;28;20603;-63
2024/02/14 06:00:47;;;;;;;16.10;11.32;;;;;;;8.44;100.00;69326.19;5074819;28;20041;-63
2024/02/14 06:03:17;;;;;;;15.65;10.98;;;;;;;8.43;100.00;69325.59;5072712;28;20051;-63
2024/02/14 06:05:45;;;;;;;16.35;11.10;;;;;;;8.47;100.00;69332.31;5072689;28;20068;-63
2024/02/14 06:08:13;;;;;;;16.02;11.02;;;;;;;8.46;100.00;69331.72;5072696;28;20052;-61
2024/02/14 06:10:41;;;;;;;17.38;11.20;;;;;;;8.45;100.00;69327.38;5071217;28;20380;-63
2024/02/14 06:13:10;;;;;;;17.67;11.70;;;;;;;8.47;100.00;69329.69;5072696;28;20040;-63
2024/02/14 06:15:38;;;;;;;15.50;10.93;;;;;;;8.49;100.00;69339.81;5074591;28;20094;-62
2024/02/14 06:18:06;;;;;;;15.52;11.57;;;;;;;8.49;100.00;69334.06;5074743;28;20040;-63
2024/02/14 06:20:36;;;;;;;18.45;11.63;;;;;;;8.48;100.00;69333.47;5072490;28;20055;-62
2024/02/14 06:23:05;;;;;;;15.00;10.57;;;;;;;8.51;100.00;69338.97;5072049;28;20059;-63
2024/02/14 06:25:33;;;;;;;14.68;10.73;;;;;;;8.51;100.00;69334.38;5073395;28;20569;-62
2024/02/14 06:28:02;;;;;;;15.25;10.40;;;;;;;8.52;100.00;69340.13;5072357;28;20052;-62
2024/02/14 06:30:30;;;;;;;14.90;10.73;;;;;;;8.53;100.00;69339.28;5072028;28;20044;-62
2024/02/14 06:33:02;;;;;;;15.35;10.50;;;;;;;8.56;100.00;69342.78;5071835;28;20043;-63
2024/02/14 06:35:31;;;;;;;17.20;11.20;;;;;;;8.53;100.00;69339.28;5073115;28;20052;-63
2024/02/14 06:38:03;;;;;;;16.02;11.25;;;;;;;8.57;100.00;69343.38;5074761;28;20045;-62
2024/02/14 06:40:33;;;;;;;14.52;9.88;;;;;;;8.57;100.00;69343.38;5074762;28;20053;-62
2024/02/14 06:43:01;;;;;;;15.50;9.68;;;;;;;8.54;100.00;69332.66;5073928;28;20687;-63
2024/02/14 06:45:29;;;;;;;14.65;10.85;;;;;;;8.55;100.00;69338.44;5071062;28;20052;-63
2024/02/14 06:48:00;;;;;;;15.32;10.93;;;;;;;8.53;100.00;69339.28;5071501;28;20098;-63
2024/02/14 06:50:29;;;;;;;16.55;10.77;;;;;;;8.53;100.00;69338.72;5070958;28;20127;-64
2024/02/14 06:53:00;;;;;;;16.35;11.25;;;;;;;8.54;100.00;69345.09;5071404;28;20049;-62
2024/02/14 06:55:31;;;;;;;14.43;10.70;;;;;;;8.56;100.00;69347.41;5069717;28;20052;-63
2024/02/14 06:58:00;;;;;;;16.52;10.75;;;;;;;8.57;100.00;69341.34;5071746;28;20501;-62
2024/02/14 07:00:29;;;;;;;16.13;10.85;;;;;;;8.55;100.00;69341.63;5072918;28;20093;-62
2024/02/14 07:02:57;;;;;;;15.82;10.75;;;;;;;8.59;100.00;69345.72;5071820;28;20056;-63
2024/02/14 07:05:26;;;;;;;14.82;11.00;;;;;;;8.59;100.00;69345.72;5071155;28;20119;-63
2024/02/14 07:07:54;;;;;;;16.48;11.27;;;;;;;8.60;100.00;69344.25;5071044;28;20608;-63
2024/02/14 07:10:22;;;;;;;17.52;11.65;;;;;;;8.60;100.00;69347.47;5069321;28;20036;-63
2024/02/14 07:12:52;;;;;;;17.20;11.68;;;;;;;8.60;100.00;69350.06;5072542;28;20044;-62
2024/02/14 07:15:20;;;;;;;15.85;11.18;;;;;;;8.60;100.00;69347.47;5071568;28;20040;-62
2024/02/14 07:17:48;;;;;;;17.42;11.38;;;;;;;8.59;100.00;69346.28;5071522;28;20045;-63
2024/02/14 07:20:18;;;;;;;18.40;11.20;;;;;;;8.61;100.00;69348.59;5071095;28;20048;-63
2024/02/14 07:22:47;;;;;;;15.63;11.43;;;;;;;8.69;100.00;69357.34;5072764;28;20499;-63
2024/02/14 07:25:16;;;;;;;16.52;11.50;;;;;;;8.69;100.00;69357.34;5068596;28;20056;-62
2024/02/14 07:27:43;;;;;;;16.38;11.57;;;;;;;8.70;100.00;69358.53;5070972;28;20414;-63
2024/02/14 07:30:14;;;;;;;18.90;12.40;;;;;;;8.68;100.00;69358.78;5069334;28;20080;-63
2024/02/14 07:32:42;;;;;;;18.73;12.10;;;;;;;8.71;100.00;69359.09;5070980;28;20036;-62
2024/02/14 07:35:10;;;;;;;17.50;11.80;;;;;;;8.74;100.00;69362.59;5073554;28;20384;-63
2024/02/14 07:37:38;;;;;;;17.00;12.05;;;;;;;8.76;100.00;69367.53;5072280;28;20407;-63
2024/02/14 07:40:08;;;;;;;20.20;13.18;;;;;;;8.74;100.00;69363.19;5073550;28;20500;-62
2024/02/14 07:42:36;;;;;;;20.48;12.65;;;;;;;8.73;100.00;69361.44;5073589;28;20044;-63
2024/02/14 07:45:05;;;;;;;18.95;13.38;;;;;;;8.76;100.00;69362.31;5073802;28;20054;-63
2024/02/14 07:47:35;;;;;;;19.75;13.93;;;;;;;8.79;100.00;69366.41;5073478;28;20051;-63
2024/02/14 07:50:03;;;;;;;19.75;13.05;;;;;;;8.77;100.00;69366.09;5072143;28;20044;-62
2024/02/14 07:52:36;;;;;;;19.45;13.98;;;;;;;8.81;100.00;69368.16;5070477;28;20503;-63
2024/02/14 07:55:05;;;;;;;21.58;13.20;;;;;;;8.83;100.00;69373.09;5066875;28;20415;-63
2024/02/14 07:57:33;;;;;;;22.65;14.45;;;;;;;8.82;100.00;69369.34;5071143;28;20105;-63
2024/02/14 08:00:02;;;;;;;22.83;14.48;;;;;;;8.87;100.00;69377.16;5072784;28;20052;-63
2024/02/14 08:02:32;;;;;;;21.75;14.43;;;;;;;8.86;100.00;69376.59;5069185;28;20036;-63
2024/02/14 08:05:05;;;;;;;20.52;13.85;;;;;;;8.87;100.00;69377.75;5069828;28;20048;-62
2024/02/14 08:07:34;;;;;;;23.45;14.57;;;;;;;8.90;100.00;69383.25;5069622;28;20533;-62
2024/02/14 08:10:02;;;;;;;21.83;14.18;;;;;;;8.92;100.00;69380.97;5067341;28;20047;-62
2024/02/14 08:12:30;;;;;;;19.75;14.20;;;;;;;8.93;100.00;69384.75;5069624;28;20036;-62
2024/02/14 08:14:58;;;;;;;18.77;13.68;;;;;;;8.96;100.00;69387.66;5069511;28;20375;-63
2024/02/14 08:17:26;;;;;;;22.35;14.27;;;;;;;8.94;100.00;69383.31;5069521;28;20048;-63
2024/02/14 08:19:54;;;;;;;22.30;14.48;;;;;;;8.96;100.00;69388.25;5069681;28;20056;-62
2024/02/14 08:22:24;;;;;;;20.23;13.45;;;;;;;8.99;100.00;69390.56;5069664;28;20072;-62
2024/02/14 08:24:52;;;;;;;19.65;12.80;;;;;;;9.02;100.00;69392.03;5067986;28;20071;-62
2024/02/14 08:27:20;;;;;;;16.42;12.88;;;;;;;9.01;100.00;69392.91;5069412;28;20097;-62
2024/02/14 08:29:49;;;;;;;21.25;12.82;;;;;;;8.99;100.00;69391.16;5070235;28;20061;-62
2024/02/14 08:32:17;;;;;;;19.02;12.82;;;;;;;8.99;100.00;69387.97;5069685;28;20055;-62
2024/02/14 08:34:46;;;;;;;17.60;11.48;;;;;;;9.00;100.00;69389.13;5067976;28;20048;-62
2024/02/14 08:37:14;;;;;;;18.15;12.45;;;;;;;9.01;100.00;69393.47;5069662;28;20048;-51
2024/02/14 08:39:44;;;;;;;18.98;11.75;;;;;;;9.02;100.00;69394.06;5068178;28;20676;-52
2024/02/14 08:42:12;;;;;;;19.23;11.57;;;;;;;9.03;100.00;69392.63;5069109;28;20110;-53
2024/02/14 08:44:41;;;;;;;17.10;11.85;;;;;;;9.02;100.00;69394.66;5068947;28;20082;-51
2024/02/14 08:47:09;;;;;;;17.05;11.40;;;;;;;9.02;100.00;69394.66;5070048;28;20496;-53
2024/02/14 08:49:37;;;;;;;19.08;12.63;;;;;;;9.05;100.00;69397.56;5069937;28;20238;-62
2024/02/14 08:52:06;;;;;;;16.42;12.35;;;;;;;9.08;100.00;69401.06;5069364;28;20814;-62
2024/02/14 08:54:34;;;;;;;16.55;11.48;;;;;;;9.11;100.00;69407.75;5067634;28;20109;-62
2024/02/14 08:57:05;;;;;;;18.40;11.88;;;;;;;9.08;100.00;69404.25;5069320;28;20055;-62
2024/02/14 08:59:33;;;;;;;16.40;11.40;;;;;;;9.08;100.00;69403.66;5069511;28;20048;-62
2024/02/14 09:02:02;;;;;;;15.00;11.40;;;;;;;9.06;100.00;69401.91;5069663;28;20040;-62
2024/02/14 09:04:30;;;;;;;15.90;11.27;;;;;;;9.10;100.00;69400.78;5069306;28;20048;-62
2024/02/14 09:06:58;;;;;;;19.17;12.48;;;;;;;9.10;100.00;69403.41;5072256;28;20048;-63
2024/02/14 09:09:26;;;;;;;15.77;11.60;;;;;;;9.12;100.00;69405.72;5070252;28;20064;-62
2024/02/14 09:11:55;;;;;;;16.40;12.15;;;;;;;9.12;100.00;69406.31;5068068;28;20060;-62
2024/02/14 09:14:24;;;;;;;16.42;12.05;;;;;;;9.17;100.00;69408.94;5072291;28;20045;-62
2024/02/14 09:16:56;;;;;;;16.90;11.52;;;;;;;9.22;100.00;69417.38;5075469;28;20450;-50
2024/02/14 09:19:25;;;;;;;15.35;11.50;;;;;;;9.25;100.00;69422.91;5073239;28;20048;-50
2024/02/14 09:21:56;;;;;;;17.17;11.53;;;;;;;9.26;100.00;69424.66;5073101;28;20047;-51
2024/02/14 09:24:24;;;;;;;17.00;11.75;;;;;;;9.28;100.00;69421.78;5071781;28;20068;-51
2024/02/14 09:26:53;;;;;;;15.95;12.07;;;;;;;9.26;100.00;69422.03;5070912;28;20502;-50
2024/02/14 09:29:21;;;;;;;15.38;11.75;;;;;;;9.32;100.00;69427.88;5072860;28;20492;-49
2024/02/14 09:31:53;;;;;;;15.77;11.70;;;;;;;9.34;100.00;69430.19;5075021;28;20045;-52
2024/02/14 09:34:21;;;;;;;19.63;12.48;;;;;;;9.34;100.00;69432.81;5072806;28;20487;-48
2024/02/14 09:36:52;;;;;;;19.02;11.27;;;;;;;9.36;100.00;69429.94;5071467;28;20043;-50
2024/02/14 09:39:20;;;;;;;16.30;11.32;;;;;;;9.39;100.00;69441.81;5072219;28;20446;-51
2024/02/14 09:41:54;;;;;;;17.13;11.70;;;;;;;9.39;100.00;69433.44;5072138;28;20039;-53
2024/02/14 09:44:23;;;;;;;17.20;11.60;;;;;;;9.35;100.00;69431.38;5075322;28;20082;-50
2024/02/14 09:46:55;;;;;;;18.60;11.38;;;;;;;9.39;100.00;69433.44;5071296;28;20063;-50
2024/02/14 09:49:24;;;;;;;16.70;11.50;;;;;;;9.37;100.00;69434.28;5072883;28;20056;-51
2024/02/14 09:51:54;;;;;;;14.70;11.25;;;;;;;9.41;100.00;69440.97;5074990;28;20088;-51
2024/02/14 09:54:23;;;;;;;17.38;10.93;;;;;;;9.41;100.00;69438.38;5073906;28;20051;-52
2024/02/14 09:56:53;;;;;;;15.35;10.77;;;;;;;9.43;100.00;69440.69;5070963;28;20064;-52
2024/02/14 09:59:23;;;;;;;19.10;11.35;;;;;;;9.45;100.00;69443.03;5072291;28;20106;-51
2024/02/14 10:01:53;;;;;;;17.05;11.40;;;;;;;9.50;100.00;69448.28;5072443;28;20055;-50
2024/02/14 10:04:22;;;;;;;16.48;12.43;;;;;;;9.48;100.00;69446.53;5071956;28;20048;-52
2024/02/14 10:06:53;;;;;;;22.23;13.18;;;;;;;9.49;100.00;69447.72;5074684;28;20492;-51
2024/02/14 10:09:43;;;;;;;21.33;12.68;;;;;;;9.52;100.00;69450.63;5075499;28;20199;-63
2024/02/14 10:12:12;;;;;;;18.30;12.48;;;;;;;9.54;100.00;69450.34;5075381;28;20047;-62
2024/02/14 10:14:59;;;;;;;21.38;12.35;;;;;;;9.59;100.00;69456.75;5075143;28;20510;-62
2024/02/14 10:17:29;;;;;;;19.75;12.57;;;;;;;9.62;100.00;69462.28;5072291;28;20052;-62
2024/02/14 10:19:58;;;;;;;18.95;12.85;;;;;;;9.62;100.00;69462.84;5072207;28;20044;-62
2024/02/14 10:22:34;;;;;;;21.52;12.77;;;;;;;9.68;100.00;69469.28;5072021;28;20542;-62
2024/02/14 10:25:02;;;;;;;;;;;;;;;9.69;100.00;69469.84;5070561;28;20056;-53
2024/02/14 10:27:31;;;;;;;20.35;12.10;;;;;;;9.77;100.00;69479.75;5070588;28;20342;-54
2024/02/14 10:30:00;;;;;;;20.70;12.82;;;;;;;9.79;100.00;69481.53;5071881;28;20060;-49
2024/02/14 10:32:30;;;;;;;19.25;12.65;;;;;;;9.80;100.00;69485.88;5071951;28;20033;-53
2024/02/14 10:34:58;;;;;;;18.20;12.55;;;;;;;9.84;100.00;69484.75;5071520;28;20047;-53
2024/02/14 10:37:29;;;;;;;23.35;11.70;;;;;;;9.88;100.00;69492.00;5071576;28;20098;-53
2024/02/14 10:40:01;;;;;;;18.50;11.50;;;;;;;9.89;100.00;69490.56;5074207;28;20048;-53
2024/02/14 10:42:29;;;;;;;20.77;10.50;;;;;;;9.90;100.00;69494.34;5074884;28;20044;-52
2024/02/14 10:44:57;;;;;;;17.42;11.00;;;;;;;9.94;100.00;69501.06;5074691;28;20052;-50
2024/02/14 10:47:33;;;;;;;16.70;10.93;;;;;;;9.95;100.00;69497.59;5073324;28;20063;-62
2024/02/14 10:50:05;;;;;;;17.38;11.30;;;;;;;9.96;100.00;69503.94;5071173;28;20045;-62
2024/02/14 10:52:35;;;;;;;17.67;10.80;;;;;;;10.02;100.00;69507.78;5071478;28;20044;-62
2024/02/14 10:55:05;;;;;;;17.98;10.88;;;;;;;10.04;100.00;69507.50;5074146;28;20052;-62
2024/02/14 10:57:34;;;;;;;22.70;11.85;;;;;;;10.07;100.00;69510.97;5074492;28;20094;-62
2024/02/14 11:00:04;;;;;;;15.40;10.40;;;;;;;10.10;100.00;69516.50;5073199;28;20084;-62
2024/02/14 11:02:36;;;;;;;15.82;10.73;;;;;;;10.13;100.00;69518.00;5071265;28;20411;-62
2024/02/14 11:05:06;;;;;;;16.13;9.88;;;;;;;10.16;100.00;69518.31;5071007;28;20057;-62
2024/02/14 11:07:35;;;;;;;14.07;10.15;;;;;;;10.19;100.00;69527.00;5071223;28;20068;-62
2024/02/14 11:10:07;;;;;;;17.85;10.45;;;;;;;10.23;100.00;69531.09;5069694;28;20048;-62
2024/02/14 11:12:38;;;;;;;16.48;10.43;;;;;;;10.26;100.00;69527.34;5070863;28;20044;-63
2024/02/14 11:15:11;;;;;;;13.70;9.18;;;;;;;10.32;100.00;69536.38;5073016;28;20045;-63
2024/02/14 11:17:42;;;;;;;13.02;9.05;;;;;;;10.34;100.00;69540.75;5071416;28;20055;-62
2024/02/14 11:20:19;;;;;;;16.83;10.15;;;;;;;10.37;100.00;69541.66;5070432;28;20563;-62
2024/02/14 11:22:59;;;;;;;14.10;9.45;;;;;;;10.41;100.00;69552.13;5070456;28;20079;-62
2024/02/14 11:25:31;;;;;;;15.65;9.63;;;;;;;10.44;100.00;69552.44;5072074;28;20084;-63
2024/02/14 11:28:02;;;;;;;15.32;9.60;;;;;;;10.44;100.00;69555.63;5073785;28;20054;-62
2024/02/14 11:30:31;;;;;;;13.65;9.38;;;;;;;10.46;100.00;69555.34;5073013;28;20159;-62